sensor_id;sensor_type;location;lat;lon;timestamp;pressure;altitude;pressure_sealevel;temperature;humidity
10261;BME280;5175;42.606;23.388;2023-05-22T00:00:53;93534.09;;;13.06;100.00
10261;BME280;5175;42.606;23.388;2023-05-22T00:03:20;93530.25;;;13.12;100.00
10261;BME280;5175;42.606;23.388;2023-05-22T00:05:50;93529.94;;;13.13;100.00
10261;BME280;5175;42.606;23.388;2023-05-22T00:08:17;93536.47;;;13.21;100.00
10261;BME280;5175;42.606;23.388;2023-05-22T00:10:44;93538.13;;;13.31;100.00
10261;BME280;5175;42.606;23.388;2023-05-22T00:13:11;93523.66;;;13.32;100.00
10261;BME280;5175;42.606;23.388;2023-05-22T00:15:37;93529.88;;;13.41;100.00
10261;BME280;5175;42.606;23.388;2023-05-22T00:18:04;93529.59;;;13.42;100.00
10261;BME280;5175;42.606;23.388;2023-05-22T00:20:32;93532.75;;;13.44;100.00
10261;BME280;5175;42.606;23.388;2023-05-22T00:23:04;93528.44;;;13.57;100.00
10261;BME280;5175;42.606;23.388;2023-05-22T00:25:34;93446.22;;;12.94;100.00
10261;BME280;5175;42.606;23.388;2023-05-22T00:28:01;93529.13;;;13.62;100.00
10261;BME280;5175;42.606;23.388;2023-05-22T00:30:28;93524.56;;;13.63;100.00
10261;BME280;5175;42.606;23.388;2023-05-22T00:32:55;93519.50;;;13.61;100.00
10261;BME280;5175;42.606;23.388;2023-05-22T00:35:22;93523.00;;;13.48;100.00
10261;BME280;5175;42.606;23.388;2023-05-22T00:37:49;93519.56;;;13.48;100.00
10261;BME280;5175;42.606;23.388;2023-05-22T00:40:17;93498.97;;;13.21;100.00
10261;BME280;5175;42.606;23.388;2023-05-22T00:42:44;93520.44;;;13.43;100.00
10261;BME280;5175;42.606;23.388;2023-05-22T00:45:12;93521.81;;;13.54;100.00
10261;BME280;5175;42.606;23.388;2023-05-22T00:47:39;93522.28;;;13.56;100.00
10261;BME280;5175;42.606;23.388;2023-05-22T00:50:07;93524.69;;;13.58;100.00
10261;BME280;5175;42.606;23.388;2023-05-22T00:52:39;93519.81;;;13.60;100.00
10261;BME280;5175;42.606;23.388;2023-05-22T00:55:08;93519.91;;;13.55;100.00
10261;BME280;5175;42.606;23.388;2023-05-22T00:57:37;93521.69;;;13.59;100.00
10261;BME280;5175;42.606;23.388;2023-05-22T01:00:05;93509.00;;;13.51;100.00
10261;BME280;5175;42.606;23.388;2023-05-22T01:02:34;93517.59;;;13.62;100.00
10261;BME280;5175;42.606;23.388;2023-05-22T01:05:03;93458.41;;;13.14;100.00
10261;BME280;5175;42.606;23.388;2023-05-22T01:07:30;93521.91;;;13.49;100.00
10261;BME280;5175;42.606;23.388;2023-05-22T01:09:57;93524.84;;;13.61;100.00
10261;BME280;5175;42.606;23.388;2023-05-22T01:12:30;93522.84;;;13.67;100.00
10261;BME280;5175;42.606;23.388;2023-05-22T01:15:07;93523.41;;;13.55;100.00
10261;BME280;5175;42.606;23.388;2023-05-22T01:17:40;93508.63;;;13.44;100.00
10261;BME280;5175;42.606;23.388;2023-05-22T01:20:16;93527.19;;;13.41;100.00
10261;BME280;5175;42.606;23.388;2023-05-22T01:26:12;93519.19;;;13.27;100.00
10261;BME280;5175;42.606;23.388;2023-05-22T01:29:07;93513.16;;;13.22;100.00
10261;BME280;5175;42.606;23.388;2023-05-22T01:31:39;93511.28;;;13.08;100.00
10261;BME280;5175;42.606;23.388;2023-05-22T01:34:10;93504.34;;;13.07;100.00
10261;BME280;5175;42.606;23.388;2023-05-22T01:36:37;93510.38;;;13.13;100.00
10261;BME280;5175;42.606;23.388;2023-05-22T01:39:06;93494.63;;;12.84;100.00
10261;BME280;5175;42.606;23.388;2023-05-22T01:41:34;93506.28;;;13.02;100.00
10261;BME280;5175;42.606;23.388;2023-05-22T01:44:01;93507.78;;;12.94;100.00
10261;BME280;5175;42.606;23.388;2023-05-22T01:46:29;93497.09;;;12.94;100.00
10261;BME280;5175;42.606;23.388;2023-05-22T01:48:57;93503.94;;;12.87;100.00
10261;BME280;5175;42.606;23.388;2023-05-22T01:51:36;93506.72;;;12.95;100.00
10261;BME280;5175;42.606;23.388;2023-05-22T01:54:14;93507.41;;;13.01;100.00
10261;BME280;5175;42.606;23.388;2023-05-22T01:56:47;93510.88;;;13.01;100.00
10261;BME280;5175;42.606;23.388;2023-05-22T01:59:20;93504.41;;;13.02;100.00
10261;BME280;5175;42.606;23.388;2023-05-22T02:01:50;93503.44;;;12.98;100.00
10261;BME280;5175;42.606;23.388;2023-05-22T02:04:20;93506.03;;;12.90;100.00
10261;BME280;5175;42.606;23.388;2023-05-22T02:06:49;93500.66;;;12.76;100.00
10261;BME280;5175;42.606;23.388;2023-05-22T02:09:18;93504.84;;;12.69;100.00
10261;BME280;5175;42.606;23.388;2023-05-22T02:11:47;93508.63;;;12.68;100.00
10261;BME280;5175;42.606;23.388;2023-05-22T02:14:14;93517.72;;;12.67;100.00
10261;BME280;5175;42.606;23.388;2023-05-22T02:16:42;93507.81;;;12.53;100.00
10261;BME280;5175;42.606;23.388;2023-05-22T02:19:11;93503.25;;;12.54;100.00
10261;BME280;5175;42.606;23.388;2023-05-22T02:21:41;93508.50;;;12.45;100.00
10261;BME280;5175;42.606;23.388;2023-05-22T02:24:08;93507.38;;;12.33;100.00
10261;BME280;5175;42.606;23.388;2023-05-22T02:26:35;93506.78;;;12.22;100.00
10261;BME280;5175;42.606;23.388;2023-05-22T02:29:02;93449.25;;;11.79;100.00
10261;BME280;5175;42.606;23.388;2023-05-22T02:31:29;93512.59;;;12.11;100.00
10261;BME280;5175;42.606;23.388;2023-05-22T02:33:55;93509.97;;;11.92;100.00
10261;BME280;5175;42.606;23.388;2023-05-22T02:36:22;93500.97;;;11.88;100.00
10261;BME280;5175;42.606;23.388;2023-05-22T02:38:51;93509.25;;;11.86;100.00
10261;BME280;5175;42.606;23.388;2023-05-22T02:41:19;93506.97;;;11.80;100.00
10261;BME280;5175;42.606;23.388;2023-05-22T02:43:46;93516.59;;;11.81;100.00
10261;BME280;5175;42.606;23.388;2023-05-22T02:46:13;93512.31;;;11.80;100.00
10261;BME280;5175;42.606;23.388;2023-05-22T02:48:39;93506.69;;;11.81;100.00
10261;BME280;5175;42.606;23.388;2023-05-22T02:51:06;93500.19;;;11.69;100.00
10261;BME280;5175;42.606;23.388;2023-05-22T02:53:33;93502.44;;;11.43;97.73
10261;BME280;5175;42.606;23.388;2023-05-22T02:56:06;93501.63;;;11.61;100.00
10261;BME280;5175;42.606;23.388;2023-05-22T02:58:33;93492.72;;;11.71;100.00
10261;BME280;5175;42.606;23.388;2023-05-22T03:00:59;93498.06;;;11.66;100.00
10261;BME280;5175;42.606;23.388;2023-05-22T03:03:27;93498.06;;;11.66;100.00
10261;BME280;5175;42.606;23.388;2023-05-22T03:05:55;93496.38;;;11.56;100.00
10261;BME280;5175;42.606;23.388;2023-05-22T03:08:23;93490.13;;;11.61;99.90
10261;BME280;5175;42.606;23.388;2023-05-22T03:10:54;93494.31;;;11.67;100.00
10261;BME280;5175;42.606;23.388;2023-05-22T03:13:22;93502.34;;;11.67;100.00
10261;BME280;5175;42.606;23.388;2023-05-22T03:15:49;93449.47;;;11.13;99.54
10261;BME280;5175;42.606;23.388;2023-05-22T03:18:16;93503.31;;;11.57;100.00
10261;BME280;5175;42.606;23.388;2023-05-22T03:20:43;93495.59;;;11.18;98.38
10261;BME280;5175;42.606;23.388;2023-05-22T03:23:10;93504.59;;;11.22;98.15
10261;BME280;5175;42.606;23.388;2023-05-22T03:25:37;93501.13;;;11.41;100.00
10261;BME280;5175;42.606;23.388;2023-05-22T03:28:04;93496.66;;;11.55;100.00
10261;BME280;5175;42.606;23.388;2023-05-22T03:30:32;93502.50;;;11.57;100.00
10261;BME280;5175;42.606;23.388;2023-05-22T03:32:58;93502.19;;;11.58;100.00
10261;BME280;5175;42.606;23.388;2023-05-22T03:35:25;93506.06;;;11.71;100.00
10261;BME280;5175;42.606;23.388;2023-05-22T03:37:52;93495.94;;;11.68;100.00
10261;BME280;5175;42.606;23.388;2023-05-22T03:40:19;93501.94;;;11.60;100.00
10261;BME280;5175;42.606;23.388;2023-05-22T03:42:45;93503.41;;;11.71;100.00
10261;BME280;5175;42.606;23.388;2023-05-22T03:45:13;93504.97;;;11.72;97.94
10261;BME280;5175;42.606;23.388;2023-05-22T03:47:41;93504.16;;;11.71;100.00
10261;BME280;5175;42.606;23.388;2023-05-22T03:50:09;93503.16;;;11.86;100.00
10261;BME280;5175;42.606;23.388;2023-05-22T03:52:36;93515.38;;;12.06;100.00
10261;BME280;5175;42.606;23.388;2023-05-22T03:55:03;93502.31;;;12.04;100.00
10261;BME280;5175;42.606;23.388;2023-05-22T03:57:30;93504.47;;;12.02;100.00
10261;BME280;5175;42.606;23.388;2023-05-22T03:59:57;93491.22;;;12.11;100.00
10261;BME280;5175;42.606;23.388;2023-05-22T04:02:34;93504.28;;;12.12;100.00
10261;BME280;5175;42.606;23.388;2023-05-22T04:05:05;93502.84;;;12.33;100.00
10261;BME280;5175;42.606;23.388;2023-05-22T04:07:32;93514.84;;;12.49;100.00
10261;BME280;5175;42.606;23.388;2023-05-22T04:09:59;93511.66;;;12.61;100.00
10261;BME280;5175;42.606;23.388;2023-05-22T04:12:26;93516.13;;;12.79;100.00
10261;BME280;5175;42.606;23.388;2023-05-22T04:14:52;93513.38;;;12.57;100.00
10261;BME280;5175;42.606;23.388;2023-05-22T04:17:19;93516.75;;;12.63;100.00
10261;BME280;5175;42.606;23.388;2023-05-22T04:19:46;93516.34;;;12.69;100.00
10261;BME280;5175;42.606;23.388;2023-05-22T04:22:14;93505.34;;;12.57;100.00
10261;BME280;5175;42.606;23.388;2023-05-22T04:24:42;93518.00;;;12.92;100.00
10261;BME280;5175;42.606;23.388;2023-05-22T04:27:13;93510.09;;;13.14;100.00
10261;BME280;5175;42.606;23.388;2023-05-22T04:29:40;93518.50;;;13.35;100.00
10261;BME280;5175;42.606;23.388;2023-05-22T04:32:09;93516.06;;;13.47;100.00
10261;BME280;5175;42.606;23.388;2023-05-22T04:34:36;93523.16;;;13.65;100.00
10261;BME280;5175;42.606;23.388;2023-05-22T04:37:03;93515.84;;;13.79;100.00
10261;BME280;5175;42.606;23.388;2023-05-22T04:39:31;93533.41;;;14.08;100.00
10261;BME280;5175;42.606;23.388;2023-05-22T04:41:58;93528.66;;;14.27;100.00
10261;BME280;5175;42.606;23.388;2023-05-22T04:44:30;93527.19;;;14.43;100.00
10261;BME280;5175;42.606;23.388;2023-05-22T04:46:59;93541.19;;;14.62;100.00
10261;BME280;5175;42.606;23.388;2023-05-22T04:49:26;93519.91;;;14.74;100.00
10261;BME280;5175;42.606;23.388;2023-05-22T04:51:53;93547.22;;;15.07;100.00
10261;BME280;5175;42.606;23.388;2023-05-22T04:54:21;93546.16;;;15.25;100.00
10261;BME280;5175;42.606;23.388;2023-05-22T04:56:50;93544.47;;;15.46;100.00
10261;BME280;5175;42.606;23.388;2023-05-22T04:59:17;93548.44;;;15.49;100.00
10261;BME280;5175;42.606;23.388;2023-05-22T05:01:47;93547.03;;;15.77;100.00
10261;BME280;5175;42.606;23.388;2023-05-22T05:04:14;93545.94;;;15.95;100.00
10261;BME280;5175;42.606;23.388;2023-05-22T05:06:42;93550.84;;;16.19;100.00
10261;BME280;5175;42.606;23.388;2023-05-22T05:09:08;93540.88;;;16.19;100.00
10261;BME280;5175;42.606;23.388;2023-05-22T05:11:35;93558.13;;;16.36;100.00
10261;BME280;5175;42.606;23.388;2023-05-22T05:14:03;93537.50;;;16.40;100.00
10261;BME280;5175;42.606;23.388;2023-05-22T05:16:30;93552.84;;;16.56;100.00
10261;BME280;5175;42.606;23.388;2023-05-22T05:18:57;93563.28;;;16.75;92.92
10261;BME280;5175;42.606;23.388;2023-05-22T05:21:23;93562.16;;;16.84;91.37
10261;BME280;5175;42.606;23.388;2023-05-22T05:23:52;93558.94;;;16.91;92.62
10261;BME280;5175;42.606;23.388;2023-05-22T05:26:18;93554.78;;;17.02;89.24
10261;BME280;5175;42.606;23.388;2023-05-22T05:28:48;93560.13;;;17.11;86.46
10261;BME280;5175;42.606;23.388;2023-05-22T05:31:17;93557.06;;;16.92;85.05
10261;BME280;5175;42.606;23.388;2023-05-22T05:33:44;93562.09;;;16.93;89.59
10261;BME280;5175;42.606;23.388;2023-05-22T05:36:11;93579.06;;;17.02;90.38
10261;BME280;5175;42.606;23.388;2023-05-22T05:38:38;93567.94;;;17.04;88.18
10261;BME280;5175;42.606;23.388;2023-05-22T05:41:05;93575.03;;;17.08;87.38
10261;BME280;5175;42.606;23.388;2023-05-22T05:43:32;93577.13;;;17.03;84.46
10261;BME280;5175;42.606;23.388;2023-05-22T05:45:59;93558.03;;;17.16;84.43
10261;BME280;5175;42.606;23.388;2023-05-22T05:48:27;93559.19;;;17.15;87.64
10261;BME280;5175;42.606;23.388;2023-05-22T05:50:53;93572.34;;;17.46;82.83
10261;BME280;5175;42.606;23.388;2023-05-22T05:53:20;93582.00;;;17.18;86.56
10261;BME280;5175;42.606;23.388;2023-05-22T05:55:47;93573.13;;;17.17;85.89
10261;BME280;5175;42.606;23.388;2023-05-22T05:58:14;93579.59;;;17.25;86.38
10261;BME280;5175;42.606;23.388;2023-05-22T06:00:40;93584.06;;;17.59;82.45
10261;BME280;5175;42.606;23.388;2023-05-22T06:03:07;93587.25;;;17.81;78.24
10261;BME280;5175;42.606;23.388;2023-05-22T06:05:36;93568.41;;;17.73;76.78
10261;BME280;5175;42.606;23.388;2023-05-22T06:08:03;93584.47;;;18.10;76.41
10261;BME280;5175;42.606;23.388;2023-05-22T06:10:30;93589.00;;;17.77;71.37
10261;BME280;5175;42.606;23.388;2023-05-22T06:12:57;93584.41;;;17.98;82.19
10261;BME280;5175;42.606;23.388;2023-05-22T06:15:24;93587.47;;;18.18;78.93
10261;BME280;5175;42.606;23.388;2023-05-22T06:17:51;93592.47;;;18.28;70.94
10261;BME280;5175;42.606;23.388;2023-05-22T06:20:18;93596.91;;;18.44;68.43
10261;BME280;5175;42.606;23.388;2023-05-22T06:22:46;93604.44;;;18.59;67.24
10261;BME280;5175;42.606;23.388;2023-05-22T06:25:12;93599.13;;;18.51;66.82
10261;BME280;5175;42.606;23.388;2023-05-22T06:27:39;93601.44;;;18.73;65.60
10261;BME280;5175;42.606;23.388;2023-05-22T06:30:07;93601.00;;;18.71;65.49
10261;BME280;5175;42.606;23.388;2023-05-22T06:32:34;93602.72;;;18.88;64.49
10261;BME280;5175;42.606;23.388;2023-05-22T06:35:01;93601.88;;;19.08;65.14
10261;BME280;5175;42.606;23.388;2023-05-22T06:37:28;93596.03;;;19.18;65.58
10261;BME280;5175;42.606;23.388;2023-05-22T06:39:58;93599.19;;;19.32;65.85
10261;BME280;5175;42.606;23.388;2023-05-22T06:42:25;93599.72;;;19.46;64.66
10261;BME280;5175;42.606;23.388;2023-05-22T06:44:52;93604.31;;;19.58;67.29
10261;BME280;5175;42.606;23.388;2023-05-22T06:47:19;93590.78;;;19.58;65.80
10261;BME280;5175;42.606;23.388;2023-05-22T06:49:46;93589.63;;;19.83;66.60
10261;BME280;5175;42.606;23.388;2023-05-22T06:52:12;93601.38;;;19.63;63.51
10261;BME280;5175;42.606;23.388;2023-05-22T06:54:39;93595.63;;;19.76;67.44
10261;BME280;5175;42.606;23.388;2023-05-22T06:57:08;93591.56;;;19.70;65.86
10261;BME280;5175;42.606;23.388;2023-05-22T06:59:35;93544.22;;;19.52;60.36
10261;BME280;5175;42.606;23.388;2023-05-22T07:02:02;93586.28;;;19.50;61.40
10261;BME280;5175;42.606;23.388;2023-05-22T07:04:29;93610.97;;;19.48;60.75
10261;BME280;5175;42.606;23.388;2023-05-22T07:06:56;93601.69;;;19.25;59.04
10261;BME280;5175;42.606;23.388;2023-05-22T07:09:22;93604.75;;;19.35;61.10
10261;BME280;5175;42.606;23.388;2023-05-22T07:11:49;93597.09;;;19.50;62.05
10261;BME280;5175;42.606;23.388;2023-05-22T07:14:17;93600.50;;;19.59;60.61
10261;BME280;5175;42.606;23.388;2023-05-22T07:16:44;93595.88;;;19.59;60.97
10261;BME280;5175;42.606;23.388;2023-05-22T07:19:11;93600.88;;;20.09;58.28
10261;BME280;5175;42.606;23.388;2023-05-22T07:21:39;93595.00;;;20.19;57.48
10261;BME280;5175;42.606;23.388;2023-05-22T07:24:05;93487.38;;;19.64;50.78
10261;BME280;5175;42.606;23.388;2023-05-22T07:26:33;93589.00;;;20.38;51.72
10261;BME280;5175;42.606;23.388;2023-05-22T07:29:00;93585.97;;;20.67;54.84
10261;BME280;5175;42.606;23.388;2023-05-22T07:31:28;93590.47;;;20.63;53.11
10261;BME280;5175;42.606;23.388;2023-05-22T07:33:56;93594.38;;;20.78;53.93
10261;BME280;5175;42.606;23.388;2023-05-22T07:36:23;93582.59;;;21.01;54.04
10261;BME280;5175;42.606;23.388;2023-05-22T07:38:49;93587.59;;;20.99;53.03
10261;BME280;5175;42.606;23.388;2023-05-22T07:41:16;93587.91;;;21.10;53.84
10261;BME280;5175;42.606;23.388;2023-05-22T07:43:43;93596.06;;;21.26;52.81
10261;BME280;5175;42.606;23.388;2023-05-22T07:46:10;93583.53;;;21.37;55.10
10261;BME280;5175;42.606;23.388;2023-05-22T07:48:38;93586.19;;;21.49;54.09
10261;BME280;5175;42.606;23.388;2023-05-22T07:51:05;93586.97;;;21.34;55.03
10261;BME280;5175;42.606;23.388;2023-05-22T07:53:32;93580.38;;;21.35;54.62
10261;BME280;5175;42.606;23.388;2023-05-22T07:55:59;93581.06;;;21.00;55.28
10261;BME280;5175;42.606;23.388;2023-05-22T07:58:26;93574.91;;;21.03;56.85
10261;BME280;5175;42.606;23.388;2023-05-22T08:00:52;93565.38;;;20.94;58.49
10261;BME280;5175;42.606;23.388;2023-05-22T08:03:20;93584.75;;;21.08;57.96
10261;BME280;5175;42.606;23.388;2023-05-22T08:05:48;93580.06;;;21.20;57.83
10261;BME280;5175;42.606;23.388;2023-05-22T08:08:15;93574.41;;;21.13;56.68
10261;BME280;5175;42.606;23.388;2023-05-22T08:10:42;93575.66;;;21.16;59.52
10261;BME280;5175;42.606;23.388;2023-05-22T08:13:08;93579.00;;;21.41;61.86
10261;BME280;5175;42.606;23.388;2023-05-22T08:15:36;93580.38;;;21.66;57.99
10261;BME280;5175;42.606;23.388;2023-05-22T08:18:03;93583.19;;;21.54;56.69
10261;BME280;5175;42.606;23.388;2023-05-22T08:20:30;93581.81;;;21.29;54.71
10261;BME280;5175;42.606;23.388;2023-05-22T08:22:58;93584.44;;;20.97;54.08
10261;BME280;5175;42.606;23.388;2023-05-22T08:25:25;93587.97;;;20.70;55.12
10261;BME280;5175;42.606;23.388;2023-05-22T08:27:51;93579.19;;;20.89;54.44
10261;BME280;5175;42.606;23.388;2023-05-22T08:30:18;93578.28;;;21.12;54.84
10261;BME280;5175;42.606;23.388;2023-05-22T08:32:45;93577.06;;;21.10;53.32
10261;BME280;5175;42.606;23.388;2023-05-22T08:35:12;93577.38;;;21.08;54.13
10261;BME280;5175;42.606;23.388;2023-05-22T08:37:39;93580.50;;;20.95;51.21
10261;BME280;5175;42.606;23.388;2023-05-22T08:40:09;93577.06;;;21.10;53.64
10261;BME280;5175;42.606;23.388;2023-05-22T08:42:36;93572.69;;;21.21;53.01
10261;BME280;5175;42.606;23.388;2023-05-22T08:45:04;93578.13;;;20.93;52.19
10261;BME280;5175;42.606;23.388;2023-05-22T08:47:33;93584.91;;;20.72;51.36
10261;BME280;5175;42.606;23.388;2023-05-22T08:50:01;93571.13;;;20.77;53.52
10261;BME280;5175;42.606;23.388;2023-05-22T08:52:32;93576.69;;;21.11;52.95
10261;BME280;5175;42.606;23.388;2023-05-22T08:55:04;93593.00;;;21.43;48.63
10261;BME280;5175;42.606;23.388;2023-05-22T08:57:36;93577.31;;;21.67;49.63
10261;BME280;5175;42.606;23.388;2023-05-22T09:00:03;93587.56;;;21.74;47.41
10261;BME280;5175;42.606;23.388;2023-05-22T09:02:32;93571.66;;;22.07;50.09
10261;BME280;5175;42.606;23.388;2023-05-22T09:04:58;93571.91;;;22.37;49.07
10261;BME280;5175;42.606;23.388;2023-05-22T09:07:26;93573.91;;;22.40;47.58
10261;BME280;5175;42.606;23.388;2023-05-22T09:09:54;93579.94;;;22.49;43.87
10261;BME280;5175;42.606;23.388;2023-05-22T09:12:21;93579.16;;;22.49;44.76
10261;BME280;5175;42.606;23.388;2023-05-22T09:14:49;93596.28;;;22.14;43.70
10261;BME280;5175;42.606;23.388;2023-05-22T09:17:17;93588.09;;;21.64;43.63
10261;BME280;5175;42.606;23.388;2023-05-22T09:19:45;93580.78;;;21.83;44.96
10261;BME280;5175;42.606;23.388;2023-05-22T09:22:12;93581.63;;;21.53;45.00
10261;BME280;5175;42.606;23.388;2023-05-22T09:24:41;93582.84;;;21.55;45.52
10261;BME280;5175;42.606;23.388;2023-05-22T09:27:09;93578.38;;;21.63;46.45
10261;BME280;5175;42.606;23.388;2023-05-22T09:29:46;93577.56;;;21.94;45.51
10261;BME280;5175;42.606;23.388;2023-05-22T09:32:15;93595.16;;;21.84;45.79
10261;BME280;5175;42.606;23.388;2023-05-22T09:34:43;93577.84;;;21.89;46.67
10261;BME280;5175;42.606;23.388;2023-05-22T09:37:11;93571.00;;;21.79;45.31
10261;BME280;5175;42.606;23.388;2023-05-22T09:39:38;93569.25;;;21.87;48.48
10261;BME280;5175;42.606;23.388;2023-05-22T09:42:06;93572.38;;;22.04;49.14
10261;BME280;5175;42.606;23.388;2023-05-22T09:44:34;93576.34;;;21.91;43.56
10261;BME280;5175;42.606;23.388;2023-05-22T09:47:02;93590.00;;;21.79;43.93
10261;BME280;5175;42.606;23.388;2023-05-22T09:49:35;93586.19;;;21.64;46.39
10261;BME280;5175;42.606;23.388;2023-05-22T09:52:03;93587.31;;;21.48;47.57
10261;BME280;5175;42.606;23.388;2023-05-22T09:54:33;93588.63;;;21.69;45.76
10261;BME280;5175;42.606;23.388;2023-05-22T09:57:04;93583.72;;;21.44;45.90
10261;BME280;5175;42.606;23.388;2023-05-22T09:59:32;93583.81;;;21.47;45.88
10261;BME280;5175;42.606;23.388;2023-05-22T10:02:05;93590.22;;;21.24;46.21
10261;BME280;5175;42.606;23.388;2023-05-22T10:04:35;93581.00;;;21.12;47.08
10261;BME280;5175;42.606;23.388;2023-05-22T10:07:05;93568.84;;;21.22;48.74
10261;BME280;5175;42.606;23.388;2023-05-22T10:09:33;93574.69;;;21.40;47.70
10261;BME280;5175;42.606;23.388;2023-05-22T10:12:05;93565.59;;;21.63;49.25
10261;BME280;5175;42.606;23.388;2023-05-22T10:14:34;93576.16;;;21.84;49.74
10261;BME280;5175;42.606;23.388;2023-05-22T10:17:02;93578.97;;;22.03;47.88
10261;BME280;5175;42.606;23.388;2023-05-22T10:19:31;93569.88;;;21.80;45.09
10261;BME280;5175;42.606;23.388;2023-05-22T10:22:00;93548.41;;;21.75;46.01
10261;BME280;5175;42.606;23.388;2023-05-22T10:24:28;93571.34;;;21.93;48.16
10261;BME280;5175;42.606;23.388;2023-05-22T10:26:55;93565.19;;;21.80;49.63
10261;BME280;5175;42.606;23.388;2023-05-22T10:29:27;93568.03;;;21.68;47.81
10261;BME280;5175;42.606;23.388;2023-05-22T10:32:02;93564.88;;;21.66;49.54
10261;BME280;5175;42.606;23.388;2023-05-22T10:34:35;93574.31;;;21.72;48.63
10261;BME280;5175;42.606;23.388;2023-05-22T10:37:24;93569.41;;;21.78;50.24
10261;BME280;5175;42.606;23.388;2023-05-22T10:40:00;93575.06;;;21.23;53.02
10261;BME280;5175;42.606;23.388;2023-05-22T10:42:29;93578.84;;;21.34;55.53
10261;BME280;5175;42.606;23.388;2023-05-22T10:44:58;93576.88;;;21.34;56.84
10261;BME280;5175;42.606;23.388;2023-05-22T10:47:25;93577.41;;;21.24;57.69
10261;BME280;5175;42.606;23.388;2023-05-22T10:50:03;93572.63;;;20.90;59.94
10261;BME280;5175;42.606;23.388;2023-05-22T10:52:31;93571.47;;;20.91;60.11
10261;BME280;5175;42.606;23.388;2023-05-22T10:54:59;93560.28;;;20.92;60.63
10261;BME280;5175;42.606;23.388;2023-05-22T10:57:31;93563.81;;;21.08;64.34
10261;BME280;5175;42.606;23.388;2023-05-22T11:00:06;93564.47;;;21.33;63.16
10261;BME280;5175;42.606;23.388;2023-05-22T11:02:38;93556.81;;;21.70;60.88
10261;BME280;5175;42.606;23.388;2023-05-22T11:05:33;93559.66;;;22.08;58.40
10261;BME280;5175;42.606;23.388;2023-05-22T11:08:36;93549.19;;;21.75;64.21
10261;BME280;5175;42.606;23.388;2023-05-22T11:11:13;93551.06;;;21.56;61.26
10261;BME280;5175;42.606;23.388;2023-05-22T11:13:40;93559.38;;;21.47;60.41
10261;BME280;5175;42.606;23.388;2023-05-22T11:16:08;93567.44;;;21.12;61.57
10261;BME280;5175;42.606;23.388;2023-05-22T11:18:36;93568.34;;;20.33;60.30
10261;BME280;5175;42.606;23.388;2023-05-22T11:21:03;93566.31;;;19.54;63.47
10261;BME280;5175;42.606;23.388;2023-05-22T11:23:33;93553.34;;;19.35;62.04
10261;BME280;5175;42.606;23.388;2023-05-22T11:26:17;93572.13;;;19.08;63.05
10261;BME280;5175;42.606;23.388;2023-05-22T11:28:48;93542.06;;;18.64;58.34
10261;BME280;5175;42.606;23.388;2023-05-22T11:31:16;93579.41;;;18.95;60.38
10261;BME280;5175;42.606;23.388;2023-05-22T11:33:43;93591.19;;;18.46;61.30
10261;BME280;5175;42.606;23.388;2023-05-22T11:36:11;93587.56;;;18.42;60.17
10261;BME280;5175;42.606;23.388;2023-05-22T11:38:39;93600.22;;;18.29;62.51
10261;BME280;5175;42.606;23.388;2023-05-22T11:41:07;93606.13;;;17.81;69.93
10261;BME280;5175;42.606;23.388;2023-05-22T11:43:36;93602.09;;;17.67;76.45
10261;BME280;5175;42.606;23.388;2023-05-22T11:46:08;93606.56;;;17.16;84.15
10261;BME280;5175;42.606;23.388;2023-05-22T11:48:39;93618.88;;;16.88;88.17
10261;BME280;5175;42.606;23.388;2023-05-22T11:51:06;93605.56;;;16.74;87.85
10261;BME280;5175;42.606;23.388;2023-05-22T11:53:34;93608.31;;;16.14;95.56
10261;BME280;5175;42.606;23.388;2023-05-22T11:56:01;93604.97;;;16.26;99.13
10261;BME280;5175;42.606;23.388;2023-05-22T11:58:29;93601.19;;;16.27;96.78
10261;BME280;5175;42.606;23.388;2023-05-22T12:01:02;93602.47;;;16.29;98.70
10261;BME280;5175;42.606;23.388;2023-05-22T12:03:30;93583.13;;;15.68;99.62
10261;BME280;5175;42.606;23.388;2023-05-22T12:05:57;93569.75;;;15.37;100.00
10261;BME280;5175;42.606;23.388;2023-05-22T12:08:24;93404.06;;;14.19;100.00
10261;BME280;5175;42.606;23.388;2023-05-22T12:10:52;93578.19;;;15.13;100.00
10261;BME280;5175;42.606;23.388;2023-05-22T12:13:26;93599.28;;;15.28;100.00
10261;BME280;5175;42.606;23.388;2023-05-22T12:15:57;93594.53;;;15.34;100.00
10261;BME280;5175;42.606;23.388;2023-05-22T12:18:26;93587.28;;;15.34;100.00
10261;BME280;5175;42.606;23.388;2023-05-22T12:20:54;93583.25;;;15.45;100.00
10261;BME280;5175;42.606;23.388;2023-05-22T12:23:23;93577.72;;;15.50;100.00
10261;BME280;5175;42.606;23.388;2023-05-22T12:25:57;93563.28;;;15.46;100.00
10261;BME280;5175;42.606;23.388;2023-05-22T12:28:24;93570.06;;;15.44;100.00
10261;BME280;5175;42.606;23.388;2023-05-22T12:30:51;93578.19;;;15.70;100.00
10261;BME280;5175;42.606;23.388;2023-05-22T12:33:19;93574.75;;;15.86;100.00
10261;BME280;5175;42.606;23.388;2023-05-22T12:35:50;93558.47;;;15.91;100.00
10261;BME280;5175;42.606;23.388;2023-05-22T12:38:19;93566.19;;;16.18;100.00
10261;BME280;5175;42.606;23.388;2023-05-22T12:40:46;93553.19;;;16.29;100.00
10261;BME280;5175;42.606;23.388;2023-05-22T12:43:13;93562.84;;;16.56;100.00
10261;BME280;5175;42.606;23.388;2023-05-22T12:45:40;93549.34;;;16.64;100.00
10261;BME280;5175;42.606;23.388;2023-05-22T12:48:07;93557.88;;;16.83;100.00
10261;BME280;5175;42.606;23.388;2023-05-22T12:50:34;93547.97;;;16.96;100.00
10261;BME280;5175;42.606;23.388;2023-05-22T12:53:02;93546.19;;;17.09;100.00
10261;BME280;5175;42.606;23.388;2023-05-22T12:55:29;93557.19;;;17.33;100.00
10261;BME280;5175;42.606;23.388;2023-05-22T12:57:56;93554.84;;;17.52;100.00
10261;BME280;5175;42.606;23.388;2023-05-22T13:00:23;93552.47;;;17.80;100.00
10261;BME280;5175;42.606;23.388;2023-05-22T13:02:50;93550.44;;;17.97;100.00
10261;BME280;5175;42.606;23.388;2023-05-22T13:05:17;93557.00;;;18.29;96.57